createdAt,value
2018-09-21T00:00:21.501Z,59.20
2018-09-21T00:00:53.290Z,59.20
2018-09-21T00:01:25.161Z,59.20
2018-09-21T00:01:57.079Z,59.20
2018-09-21T00:02:28.968Z,59.20
2018-09-21T00:03:00.909Z,59.20
2018-09-21T00:03:32.929Z,59.70
2018-09-21T00:04:04.758Z,59.20
2018-09-21T00:04:36.609Z,59.10
2018-09-21T00:05:08.559Z,59.20
2018-09-21T00:05:40.398Z,59.10
2018-09-21T00:06:12.250Z,59.20
2018-09-21T00:06:44.118Z,59.20
2018-09-21T00:07:16.113Z,59.20
2018-09-21T00:07:48.034Z,59.20
2018-09-21T00:08:19.877Z,59.20
2018-09-21T00:08:52.060Z,59.20
2018-09-21T00:09:23.954Z,59.10
2018-09-21T00:09:55.809Z,59.20
2018-09-21T00:10:27.641Z,59.10
2018-09-21T00:10:59.681Z,59.10
2018-09-21T00:11:31.870Z,59.10
2018-09-21T00:12:03.668Z,59.50
2018-09-21T00:12:35.533Z,59.10
2018-09-21T00:13:07.454Z,59.20
2018-09-21T00:13:39.321Z,59.10
2018-09-21T00:14:11.499Z,59.10
2018-09-21T00:14:43.579Z,59.00
2018-09-21T00:15:15.445Z,59.10
2018-09-21T00:15:47.270Z,59.80
2018-09-21T00:16:19.070Z,59.70
2018-09-21T00:16:50.963Z,59.20
2018-09-21T00:17:22.862Z,59.20
2018-09-21T00:17:54.729Z,59.70
2018-09-21T00:18:26.589Z,59.70
2018-09-21T00:18:58.416Z,59.10
2018-09-21T00:19:30.205Z,59.00
2018-09-21T00:20:02.340Z,59.10
2018-09-21T00:20:34.201Z,59.00
2018-09-21T00:21:06.031Z,59.10
2018-09-21T00:21:37.888Z,59.10
2018-09-21T00:22:09.711Z,59.10
2018-09-21T00:22:41.497Z,59.20
2018-09-21T00:23:13.374Z,59.10
2018-09-21T00:23:45.169Z,59.10
2018-09-21T00:24:17.380Z,59.10
2018-09-21T00:24:49.412Z,59.10
2018-09-21T00:25:21.291Z,59.10
2018-09-21T00:25:53.096Z,59.10
2018-09-21T00:26:24.918Z,59.10
2018-09-21T00:26:56.749Z,59.00
2018-09-21T00:27:28.680Z,59.00
2018-09-21T00:28:00.521Z,59.00
2018-09-21T00:28:32.320Z,59.40
2018-09-21T00:29:04.093Z,59.10
2018-09-21T00:29:36.114Z,59.10
2018-09-21T00:30:08.030Z,59.00
2018-09-21T00:30:39.833Z,58.40
2018-09-21T00:31:11.615Z,59.00
2018-09-21T00:31:43.700Z,59.00
2018-09-21T00:32:15.573Z,59.00
2018-09-21T00:32:47.670Z,59.40
2018-09-21T00:33:19.445Z,59.00
2018-09-21T00:33:51.227Z,59.00
2018-09-21T00:34:23.144Z,59.00
2018-09-21T00:34:54.951Z,59.00
2018-09-21T00:35:26.782Z,59.00
2018-09-21T00:35:58.662Z,59.00
2018-09-21T00:36:30.681Z,58.90
2018-09-21T00:37:02.744Z,58.90
2018-09-21T00:37:34.735Z,59.60
2018-09-21T00:38:06.712Z,59.00
2018-09-21T00:38:38.531Z,59.50
2018-09-21T00:39:10.428Z,58.90
2018-09-21T00:39:42.226Z,59.00
2018-09-21T00:40:14.321Z,58.90
2018-09-21T00:40:46.202Z,58.90
2018-09-21T00:41:18.026Z,59.00
2018-09-21T00:41:49.881Z,59.00
2018-09-21T00:42:21.712Z,58.90
2018-09-21T00:42:53.500Z,58.90
2018-09-21T00:43:25.318Z,58.80
2018-09-21T00:43:57.212Z,58.90
2018-09-21T00:44:29.123Z,58.90
2018-09-21T00:45:00.934Z,59.00
2018-09-21T00:45:32.732Z,58.90
2018-09-21T00:46:04.557Z,58.90
2018-09-21T00:46:36.400Z,58.90
2018-09-21T00:47:08.252Z,58.90
2018-09-21T00:47:40.138Z,58.90
2018-09-21T00:48:12.473Z,58.90
2018-09-21T00:48:44.493Z,58.80
2018-09-21T00:49:16.372Z,58.80
2018-09-21T00:49:48.176Z,58.80
2018-09-21T00:50:20.072Z,58.80
2018-09-21T00:50:51.878Z,58.80
2018-09-21T00:51:23.993Z,58.80
2018-09-21T00:51:55.872Z,58.80
2018-09-21T00:52:27.826Z,59.00
2018-09-21T00:52:59.639Z,58.80
2018-09-21T00:53:31.507Z,58.80
2018-09-21T00:54:03.353Z,58.80
2018-09-21T00:54:35.181Z,58.80
2018-09-21T00:55:07.043Z,58.80
2018-09-21T00:55:38.843Z,58.90
2018-09-21T00:56:10.684Z,58.80
2018-09-21T00:56:42.573Z,59.40
2018-09-21T00:57:14.392Z,58.80
2018-09-21T00:57:46.192Z,58.80
2018-09-21T00:58:17.980Z,58.80
2018-09-21T00:58:49.902Z,58.80
2018-09-21T00:59:21.753Z,58.80
2018-09-21T00:59:53.733Z,58.80
2018-09-21T01:00:25.692Z,58.90
2018-09-21T01:00:57.635Z,58.70
2018-09-21T01:01:29.446Z,58.70
2018-09-21T01:02:01.360Z,58.70
2018-09-21T01:02:33.467Z,58.80
2018-09-21T01:03:05.387Z,58.80
2018-09-21T01:03:37.265Z,59.10
2018-09-21T01:04:09.235Z,58.70
2018-09-21T01:04:41.142Z,59.10
2018-09-21T01:05:13.153Z,58.70
2018-09-21T01:05:45.028Z,58.80
2018-09-21T01:06:16.812Z,58.70
2018-09-21T01:06:48.741Z,58.70
2018-09-21T01:07:20.592Z,58.70
2018-09-21T01:07:52.622Z,58.70
2018-09-21T01:08:24.451Z,59.30
2018-09-21T01:08:56.490Z,58.70
2018-09-21T01:09:28.461Z,58.70
2018-09-21T01:10:00.230Z,58.60
2018-09-21T01:10:32.145Z,58.60
2018-09-21T01:11:04.033Z,58.60
2018-09-21T01:11:35.932Z,58.60
2018-09-21T01:12:07.818Z,58.60
2018-09-21T01:12:39.722Z,58.60
2018-09-21T01:13:11.692Z,58.60
2018-09-21T01:13:43.824Z,58.60
2018-09-21T01:19:06.243Z,58.60
2018-09-21T01:19:38.202Z,58.60
2018-09-21T01:20:10.207Z,58.60
2018-09-21T01:20:42.043Z,58.90
2018-09-21T01:21:14.091Z,58.70
2018-09-21T01:21:45.933Z,58.60
2018-09-21T01:22:17.923Z,58.60
2018-09-21T01:22:50.041Z,58.60
2018-09-21T01:23:21.996Z,58.60
2018-09-21T01:23:53.856Z,58.60
2018-09-21T01:24:25.822Z,59.20
2018-09-21T01:24:57.678Z,58.60
2018-09-21T01:25:29.486Z,58.60
2018-09-21T01:26:01.426Z,58.60
2018-09-21T01:26:33.229Z,59.10
2018-09-21T01:27:05.135Z,58.50
2018-09-21T01:27:37.018Z,58.50
2018-09-21T01:28:08.895Z,58.50
2018-09-21T01:28:40.823Z,58.50
2018-09-21T01:29:12.772Z,59.00
2018-09-21T01:29:44.602Z,58.50
2018-09-21T01:30:16.380Z,58.80
2018-09-21T01:30:48.304Z,58.50
2018-09-21T01:31:20.180Z,58.50
2018-09-21T01:31:52.166Z,58.50
2018-09-21T01:32:23.975Z,58.50
2018-09-21T01:32:55.795Z,58.50
2018-09-21T01:33:27.625Z,58.50
2018-09-21T01:33:59.641Z,58.50
2018-09-21T01:34:31.481Z,58.50
2018-09-21T01:35:03.313Z,58.50
2018-09-21T01:35:35.179Z,58.50
2018-09-21T01:36:06.994Z,58.50
2018-09-21T01:36:38.853Z,58.50
2018-09-21T01:37:10.825Z,58.40
2018-09-21T01:37:42.645Z,58.90
2018-09-21T01:38:14.665Z,58.40
2018-09-21T01:38:46.526Z,59.00
2018-09-21T01:39:18.376Z,58.50
2018-09-21T01:39:50.226Z,58.40
2018-09-21T01:40:22.134Z,58.40
2018-09-21T01:40:54.015Z,58.40
2018-09-21T01:41:25.828Z,58.40
2018-09-21T01:41:57.604Z,58.40
2018-09-21T01:42:29.479Z,58.40
2018-09-21T01:43:01.261Z,58.60
2018-09-21T01:43:33.155Z,58.50
2018-09-21T01:44:04.966Z,58.50
2018-09-21T01:44:36.871Z,58.50
2018-09-21T01:45:08.659Z,58.40
2018-09-21T01:45:40.518Z,58.40
2018-09-21T01:46:12.388Z,58.40
2018-09-21T01:46:44.196Z,58.40
2018-09-21T01:47:16.017Z,58.40
2018-09-21T01:47:47.865Z,58.30
2018-09-21T01:48:19.694Z,58.30
2018-09-21T01:48:51.614Z,58.90
2018-09-21T01:49:23.564Z,58.30
2018-09-21T01:49:55.614Z,58.40
2018-09-21T01:50:27.566Z,58.30
2018-09-21T01:50:59.594Z,58.30
2018-09-21T01:51:31.427Z,58.30
2018-09-21T01:52:03.305Z,58.30
2018-09-21T01:52:35.144Z,58.30
2018-09-21T01:53:07.017Z,58.30
2018-09-21T01:53:38.863Z,58.30
2018-09-21T01:54:10.722Z,58.40
2018-09-21T01:54:42.561Z,58.40
2018-09-21T01:55:14.694Z,58.40
2018-09-21T01:55:46.654Z,58.40
2018-09-21T01:56:18.645Z,58.40
2018-09-21T01:56:50.474Z,57.90
2018-09-21T01:57:22.320Z,58.20
2018-09-21T01:57:54.246Z,58.30
2018-09-21T01:58:26.057Z,58.20
2018-09-21T01:58:57.975Z,58.20
2018-09-21T01:59:30.031Z,58.20
2018-09-21T02:00:01.873Z,58.20
2018-09-21T02:00:33.796Z,58.30
2018-09-21T02:01:05.615Z,58.30
2018-09-21T02:01:37.455Z,58.90
2018-09-21T02:02:09.282Z,58.30
2018-09-21T02:02:41.275Z,58.20
2018-09-21T02:03:13.045Z,58.30
2018-09-21T02:03:44.879Z,58.20
2018-09-21T02:04:17.381Z,58.20
2018-09-21T02:04:49.190Z,58.20
2018-09-21T02:05:21.234Z,58.20
2018-09-21T02:05:53.093Z,58.20
2018-09-21T02:06:24.859Z,58.20
2018-09-21T02:06:56.744Z,58.20
2018-09-21T02:07:28.566Z,58.20
2018-09-21T02:08:00.404Z,58.20
2018-09-21T02:08:32.345Z,58.20
2018-09-21T02:09:04.224Z,58.30
2018-09-21T02:09:36.046Z,58.20
2018-09-21T02:10:08.052Z,58.10
2018-09-21T02:10:39.848Z,58.20
2018-09-21T02:11:11.673Z,58.20
2018-09-21T02:11:43.476Z,58.20
2018-09-21T02:12:15.396Z,58.20
2018-09-21T02:12:47.326Z,58.10
2018-09-21T02:13:19.194Z,58.20
2018-09-21T02:13:51.208Z,58.20
2018-09-21T02:14:23.004Z,58.10
2018-09-21T02:14:55.053Z,58.20
2018-09-21T02:15:26.869Z,58.20
2018-09-21T02:15:58.684Z,58.20
2018-09-21T02:16:30.464Z,58.20
2018-09-21T02:17:02.277Z,58.20
2018-09-21T02:17:34.141Z,58.20
2018-09-21T02:18:06.206Z,58.10
2018-09-21T02:18:38.046Z,58.20
2018-09-21T02:19:09.931Z,58.20
2018-09-21T02:19:41.722Z,58.70
2018-09-21T02:20:13.505Z,58.20
2018-09-21T02:20:45.288Z,58.20
2018-09-21T02:21:17.064Z,58.20
2018-09-21T02:21:48.836Z,58.20
2018-09-21T02:22:20.654Z,58.20
2018-09-21T02:22:52.433Z,58.20
2018-09-21T02:23:24.256Z,58.20
2018-09-21T02:23:56.029Z,58.10
2018-09-21T02:24:27.836Z,58.20
2018-09-21T02:24:59.614Z,58.20
2018-09-21T02:25:31.390Z,58.20
2018-09-21T02:26:03.193Z,58.20
2018-09-21T02:26:34.985Z,58.10
2018-09-21T02:27:06.761Z,58.10
2018-09-21T02:27:38.547Z,58.20
2018-09-21T02:28:10.363Z,58.10
2018-09-21T02:28:42.149Z,58.10
2018-09-21T02:29:13.942Z,58.20
2018-09-21T02:29:45.814Z,58.70
2018-09-21T02:30:17.609Z,58.10
2018-09-21T02:30:49.417Z,58.10
2018-09-21T02:31:21.198Z,58.10
2018-09-21T02:31:52.987Z,58.00
2018-09-21T02:32:24.767Z,58.20
2018-09-21T02:32:56.558Z,58.10
2018-09-21T02:33:28.358Z,58.10
2018-09-21T02:34:00.171Z,58.10
2018-09-21T02:34:32.122Z,58.00
2018-09-21T02:35:03.952Z,58.10
2018-09-21T02:35:35.846Z,58.00
2018-09-21T02:36:07.787Z,58.00
2018-09-21T02:36:39.628Z,58.60
2018-09-21T02:37:11.757Z,58.00
2018-09-21T02:37:43.550Z,58.00
2018-09-21T02:38:15.358Z,58.00
2018-09-21T02:38:47.199Z,58.00
2018-09-21T02:39:18.957Z,58.00
2018-09-21T02:39:50.808Z,58.00
2018-09-21T02:40:22.619Z,58.10
2018-09-21T02:40:54.498Z,58.10
2018-09-21T02:41:26.474Z,58.00
2018-09-21T02:41:58.530Z,58.60
2018-09-21T02:42:30.335Z,58.00
2018-09-21T02:43:02.351Z,58.10
2018-09-21T02:43:34.278Z,58.00
2018-09-21T02:44:06.073Z,58.00
2018-09-21T02:44:37.902Z,58.00
2018-09-21T02:45:09.734Z,58.10
2018-09-21T02:45:41.929Z,58.00
2018-09-21T02:46:13.821Z,58.10
2018-09-21T02:46:45.621Z,58.00
2018-09-21T02:47:17.445Z,58.10
2018-09-21T02:47:49.302Z,58.00
2018-09-21T02:48:21.124Z,58.10
2018-09-21T02:48:53.055Z,58.10
2018-09-21T02:49:25.028Z,58.10
2018-09-21T02:49:56.813Z,58.10
2018-09-21T02:50:28.948Z,58.00
2018-09-21T02:51:00.787Z,58.00
2018-09-21T02:51:32.769Z,58.00
2018-09-21T02:52:04.912Z,58.00
2018-09-21T02:52:36.734Z,58.10
2018-09-21T02:53:08.620Z,58.00
2018-09-21T02:53:40.629Z,58.00
2018-09-21T02:54:12.633Z,58.10
2018-09-21T02:54:44.437Z,58.00
2018-09-21T02:55:16.225Z,58.00
2018-09-21T02:55:48.004Z,58.00
2018-09-21T02:56:19.860Z,58.00
2018-09-21T02:56:51.737Z,58.00
2018-09-21T02:57:23.521Z,57.50
2018-09-21T02:57:55.681Z,57.90
2018-09-21T02:58:27.839Z,57.90
2018-09-21T02:58:59.652Z,58.00
2018-09-21T02:59:31.436Z,58.00
2018-09-21T03:00:03.252Z,58.00
2018-09-21T03:00:35.093Z,58.00
2018-09-21T03:01:07.126Z,58.00
2018-09-21T03:01:39.013Z,58.00
2018-09-21T03:02:10.881Z,58.00
2018-09-21T03:02:42.892Z,58.00
2018-09-21T03:03:14.883Z,58.00
2018-09-21T03:03:46.681Z,58.00
2018-09-21T03:04:18.555Z,57.90
2018-09-21T03:04:50.461Z,57.90
2018-09-21T03:05:22.452Z,58.00
2018-09-21T03:05:54.310Z,58.00
2018-09-21T03:06:26.094Z,58.00
2018-09-21T03:06:58.054Z,57.90
2018-09-21T03:07:29.872Z,58.00
2018-09-21T03:08:01.660Z,58.00
2018-09-21T03:08:33.493Z,58.10
2018-09-21T03:09:05.539Z,58.10
2018-09-21T03:09:37.493Z,58.10
2018-09-21T03:10:09.322Z,58.10
2018-09-21T03:10:41.161Z,58.10
2018-09-21T03:11:13.003Z,58.10
2018-09-21T03:11:45.026Z,58.10
2018-09-21T03:12:16.858Z,58.30
2018-09-21T03:12:49.056Z,58.10
2018-09-21T03:13:21.036Z,58.00
2018-09-21T03:13:52.952Z,58.00
2018-09-21T03:14:24.965Z,58.00
2018-09-21T03:14:56.814Z,58.20
2018-09-21T03:15:28.658Z,58.00
2018-09-21T03:16:00.453Z,57.90
2018-09-21T03:16:32.454Z,58.00
2018-09-21T03:17:04.361Z,58.60
2018-09-21T03:17:36.275Z,58.00
2018-09-21T03:18:08.076Z,57.90
2018-09-21T03:18:39.944Z,57.90
2018-09-21T03:19:11.872Z,58.00
2018-09-21T03:19:43.682Z,58.00
2018-09-21T03:20:15.502Z,58.00
2018-09-21T03:20:47.402Z,58.00
2018-09-21T03:21:19.197Z,57.90
2018-09-21T03:21:51.174Z,57.90
2018-09-21T03:22:23.053Z,57.90
2018-09-21T03:22:55.144Z,57.90
2018-09-21T03:23:26.992Z,57.90
2018-09-21T03:23:58.855Z,57.50
2018-09-21T03:24:30.724Z,57.90
2018-09-21T03:25:02.613Z,57.90
2018-09-21T03:25:34.555Z,58.50
2018-09-21T03:26:06.415Z,57.90
2018-09-21T03:26:38.453Z,57.90
2018-09-21T03:27:10.364Z,57.90
2018-09-21T03:27:42.462Z,57.90
2018-09-21T03:28:14.360Z,57.80
2018-09-21T03:28:46.228Z,58.60
2018-09-21T03:29:18.054Z,57.90
2018-09-21T03:29:50.002Z,58.00
2018-09-21T03:30:21.862Z,58.00
2018-09-21T03:30:53.727Z,58.70
2018-09-21T03:31:25.884Z,58.00
2018-09-21T03:31:58.335Z,58.00
2018-09-21T03:32:30.153Z,58.00
2018-09-21T03:33:01.967Z,57.90
2018-09-21T03:33:34.062Z,58.60
2018-09-21T03:34:06.144Z,58.00
2018-09-21T03:34:37.927Z,58.00
2018-09-21T03:35:09.799Z,58.00
2018-09-21T03:35:41.850Z,57.90
2018-09-21T03:36:13.720Z,57.90
2018-09-21T03:36:45.552Z,58.20
2018-09-21T03:37:17.326Z,58.00
2018-09-21T03:37:49.171Z,58.00
2018-09-21T03:38:21.047Z,57.90
2018-09-21T03:38:52.832Z,58.00
2018-09-21T03:39:24.961Z,58.00
2018-09-21T03:39:56.794Z,58.00
2018-09-21T03:40:28.605Z,58.00
2018-09-21T03:41:00.508Z,58.00
2018-09-21T03:41:32.318Z,58.00
2018-09-21T03:42:04.109Z,58.00
2018-09-21T03:42:35.972Z,57.90
2018-09-21T03:43:07.945Z,58.00
2018-09-21T03:43:39.774Z,58.00
2018-09-21T03:44:11.589Z,57.90
2018-09-21T03:44:43.393Z,58.00
2018-09-21T03:45:15.242Z,58.00
2018-09-21T03:45:47.161Z,58.00
2018-09-21T03:46:18.993Z,57.90
2018-09-21T03:46:51.004Z,58.00
2018-09-21T03:47:22.860Z,58.00
2018-09-21T03:47:54.642Z,58.00
2018-09-21T03:48:26.520Z,57.90
2018-09-21T03:48:58.429Z,57.90
2018-09-21T03:49:30.392Z,57.90
2018-09-21T03:50:02.292Z,58.00
2018-09-21T03:50:34.124Z,58.00
2018-09-21T03:51:05.981Z,57.90
2018-09-21T03:51:38.117Z,57.90
2018-09-21T03:52:10.040Z,57.90
2018-09-21T03:52:42.040Z,58.20
2018-09-21T03:53:14.232Z,58.20
2018-09-21T03:53:46.310Z,58.00
2018-09-21T03:54:18.143Z,58.00
2018-09-21T03:54:50.234Z,58.00
2018-09-21T03:55:22.149Z,57.90
2018-09-21T03:55:54.012Z,58.00
2018-09-21T03:56:25.860Z,58.00
2018-09-21T03:56:57.711Z,57.90
2018-09-21T03:57:29.643Z,58.00
2018-09-21T03:58:01.477Z,58.00
2018-09-21T03:58:33.385Z,58.00
2018-09-21T03:59:05.322Z,58.00
2018-09-21T03:59:37.151Z,58.00
2018-09-21T04:00:09.044Z,58.10
2018-09-21T04:00:40.850Z,57.90
2018-09-21T04:01:12.803Z,58.00
2018-09-21T04:01:44.750Z,58.00
2018-09-21T04:02:16.820Z,57.90
2018-09-21T04:02:48.906Z,57.90
2018-09-21T04:03:20.947Z,58.00
2018-09-21T04:03:52.788Z,58.00
2018-09-21T04:04:24.849Z,58.10
2018-09-21T04:04:56.690Z,58.10
2018-09-21T04:05:28.673Z,58.00
2018-09-21T04:06:00.478Z,58.00
2018-09-21T04:06:32.680Z,58.00
2018-09-21T04:07:04.645Z,58.00
2018-09-21T04:07:36.580Z,58.00
2018-09-21T04:08:08.483Z,58.00
2018-09-21T04:08:40.473Z,58.00
2018-09-21T04:09:12.422Z,58.00
2018-09-21T04:09:44.272Z,58.00
2018-09-21T04:10:16.323Z,58.00
2018-09-21T04:10:48.159Z,58.00
2018-09-21T04:11:20.078Z,58.00
2018-09-21T04:11:51.846Z,58.00
2018-09-21T04:12:23.629Z,58.40
2018-09-21T04:12:55.551Z,58.00
2018-09-21T04:13:27.321Z,57.90
2018-09-21T04:13:59.246Z,58.50
2018-09-21T04:14:31.058Z,57.90
2018-09-21T04:15:02.891Z,57.90
2018-09-21T04:15:34.938Z,57.90
2018-09-21T04:16:06.756Z,57.90
2018-09-21T04:16:38.565Z,57.90
2018-09-21T04:17:10.388Z,57.90
2018-09-21T04:17:42.259Z,58.00
2018-09-21T04:18:14.165Z,58.00
2018-09-21T04:18:46.008Z,57.90
2018-09-21T04:19:17.789Z,58.00
2018-09-21T04:19:49.647Z,58.00
2018-09-21T04:20:21.462Z,58.00
2018-09-21T04:20:53.259Z,58.00
2018-09-21T04:21:25.108Z,58.00
2018-09-21T04:21:56.891Z,58.00
2018-09-21T04:22:28.749Z,57.90
2018-09-21T04:23:00.773Z,57.90
2018-09-21T04:23:32.809Z,58.00
2018-09-21T04:24:04.602Z,58.00
2018-09-21T04:24:36.423Z,57.90
2018-09-21T04:25:08.335Z,58.00
2018-09-21T04:25:40.154Z,57.90
2018-09-21T04:26:12.013Z,57.90
2018-09-21T04:26:43.828Z,57.90
2018-09-21T04:27:15.633Z,57.90
2018-09-21T04:27:47.409Z,57.90
2018-09-21T04:28:19.378Z,57.90
2018-09-21T04:28:51.207Z,57.90
2018-09-21T04:29:23.130Z,57.90
2018-09-21T04:29:55.098Z,57.90
2018-09-21T04:30:26.881Z,58.00
2018-09-21T04:30:58.968Z,57.80
2018-09-21T04:31:30.796Z,57.90
2018-09-21T04:32:02.647Z,57.90
2018-09-21T04:32:34.606Z,57.80
2018-09-21T04:33:06.436Z,57.90
2018-09-21T04:33:38.329Z,57.90
2018-09-21T04:34:10.232Z,57.80
2018-09-21T04:34:42.089Z,57.80
2018-09-21T04:35:13.866Z,57.90
2018-09-21T04:35:45.705Z,57.80
2018-09-21T04:36:17.593Z,57.90
2018-09-21T04:36:49.688Z,57.90
2018-09-21T04:37:21.557Z,57.80
2018-09-21T04:37:53.457Z,57.90
2018-09-21T04:38:25.253Z,57.90
2018-09-21T04:38:57.099Z,57.90
2018-09-21T04:39:28.924Z,57.80
2018-09-21T04:40:00.929Z,57.80
2018-09-21T04:40:32.761Z,58.50
2018-09-21T04:41:04.621Z,57.80
2018-09-21T04:41:36.436Z,57.90
2018-09-21T04:42:08.558Z,57.90
2018-09-21T04:42:40.814Z,57.90
2018-09-21T04:43:12.677Z,57.90
2018-09-21T04:43:44.496Z,57.90
2018-09-21T04:44:16.688Z,57.30
2018-09-21T04:44:48.581Z,57.90
2018-09-21T04:45:20.373Z,57.90
2018-09-21T04:45:52.281Z,57.90
2018-09-21T04:46:24.596Z,57.90
2018-09-21T04:46:56.467Z,57.80
2018-09-21T04:47:28.314Z,58.20
2018-09-21T04:48:00.147Z,57.80
2018-09-21T04:48:32.031Z,57.80
2018-09-21T04:49:03.866Z,57.80
2018-09-21T04:49:35.691Z,57.80
2018-09-21T04:50:07.538Z,57.80
2018-09-21T04:50:39.602Z,57.80
2018-09-21T04:51:11.617Z,57.80
2018-09-21T04:51:43.520Z,57.80
2018-09-21T04:52:15.298Z,57.80
2018-09-21T04:52:47.225Z,57.80
2018-09-21T04:53:19.068Z,57.80
2018-09-21T04:53:50.856Z,57.80
2018-09-21T04:54:22.706Z,57.70
2018-09-21T04:54:54.516Z,57.80
2018-09-21T04:55:26.324Z,57.70
2018-09-21T04:55:58.368Z,57.80
2018-09-21T04:56:30.467Z,57.80
2018-09-21T04:57:02.466Z,57.80
2018-09-21T04:57:34.274Z,57.80
2018-09-21T04:58:06.138Z,57.80
2018-09-21T04:58:38.027Z,57.80
2018-09-21T04:59:09.936Z,57.80
2018-09-21T04:59:41.903Z,57.70
2018-09-21T05:00:13.736Z,57.80
2018-09-21T05:00:45.578Z,57.70
2018-09-21T05:01:17.387Z,57.70
2018-09-21T05:01:49.365Z,57.70
2018-09-21T05:02:21.179Z,57.70
2018-09-21T05:02:53.068Z,58.50
2018-09-21T05:03:25.366Z,57.80
2018-09-21T05:03:57.139Z,57.80
2018-09-21T05:04:29.016Z,57.70
2018-09-21T05:05:01.218Z,57.70
2018-09-21T05:05:33.066Z,57.80
2018-09-21T05:06:04.866Z,58.40
2018-09-21T05:06:36.785Z,57.70
2018-09-21T05:07:08.935Z,57.70
2018-09-21T05:07:40.918Z,57.20
2018-09-21T05:08:12.766Z,57.70
2018-09-21T05:08:44.628Z,57.70
2018-09-21T05:09:16.546Z,57.70
2018-09-21T05:09:48.396Z,58.20
2018-09-21T05:10:20.397Z,57.90
2018-09-21T05:10:52.482Z,57.70
2018-09-21T05:11:24.416Z,57.70
2018-09-21T05:11:56.234Z,57.70
2018-09-21T05:12:28.066Z,57.60
2018-09-21T05:12:59.888Z,57.70
2018-09-21T05:13:31.750Z,57.60
2018-09-21T05:14:03.547Z,57.70
2018-09-21T05:14:35.458Z,57.70
2018-09-21T05:15:07.346Z,57.70
2018-09-21T05:15:39.293Z,57.60
2018-09-21T05:16:11.135Z,57.70
2018-09-21T05:16:42.966Z,57.70
2018-09-21T05:17:14.797Z,57.60
2018-09-21T05:17:46.571Z,57.60
2018-09-21T05:18:18.662Z,57.70
2018-09-21T05:18:50.508Z,57.70
2018-09-21T05:19:22.348Z,57.70
2018-09-21T05:19:54.203Z,57.70
2018-09-21T05:20:26.197Z,57.60
2018-09-21T05:20:58.201Z,57.60
2018-09-21T05:21:30.038Z,57.70
2018-09-21T05:22:01.856Z,57.70
2018-09-21T05:22:33.657Z,57.70
2018-09-21T05:23:05.448Z,57.70
2018-09-21T05:23:37.230Z,57.70
2018-09-21T05:24:09.135Z,57.70
2018-09-21T05:24:41.076Z,57.70
2018-09-21T05:25:13.169Z,57.70
2018-09-21T05:25:44.995Z,57.60
2018-09-21T05:26:16.822Z,58.20
2018-09-21T05:26:48.691Z,57.60
2018-09-21T05:27:20.704Z,57.50
2018-09-21T05:27:52.547Z,57.60
2018-09-21T05:28:24.628Z,57.60
2018-09-21T05:28:56.424Z,57.50
2018-09-21T05:29:28.407Z,57.50
2018-09-21T05:30:00.245Z,57.50
2018-09-21T05:30:32.319Z,57.40
2018-09-21T05:31:04.298Z,57.40
2018-09-21T05:31:36.100Z,57.40
2018-09-21T05:32:08.157Z,57.50
2018-09-21T05:32:40.023Z,57.40
2018-09-21T05:33:11.806Z,57.40
2018-09-21T05:33:43.593Z,57.30
2018-09-21T05:34:15.391Z,57.40
2018-09-21T05:34:47.242Z,57.40
2018-09-21T05:35:19.326Z,57.40
2018-09-21T05:35:51.177Z,57.30
2018-09-21T05:36:23.224Z,57.40
2018-09-21T05:36:55.048Z,57.30
2018-09-21T05:37:26.876Z,57.30
2018-09-21T05:37:58.691Z,57.30
2018-09-21T05:38:30.576Z,57.30
2018-09-21T05:39:02.361Z,57.30
2018-09-21T05:39:34.180Z,57.10
2018-09-21T05:40:06.168Z,57.30
2018-09-21T05:40:38.285Z,57.30
2018-09-21T05:41:10.258Z,57.30
2018-09-21T05:41:42.041Z,57.20
2018-09-21T05:42:13.859Z,57.20
2018-09-21T05:42:45.720Z,57.20
2018-09-21T05:43:17.587Z,57.20
2018-09-21T05:43:49.452Z,57.20
2018-09-21T05:44:21.416Z,57.20
2018-09-21T05:44:53.221Z,57.20
2018-09-21T05:45:25.090Z,57.20
2018-09-21T05:45:57.067Z,57.10
2018-09-21T05:46:29.048Z,57.10
2018-09-21T05:47:00.981Z,57.20
2018-09-21T05:47:32.995Z,57.10
2018-09-21T05:48:04.754Z,57.20
2018-09-21T05:48:36.607Z,57.20
2018-09-21T05:49:08.616Z,57.10
2018-09-21T05:49:40.427Z,57.10
2018-09-21T05:50:12.454Z,57.10
2018-09-21T05:50:44.285Z,57.10
2018-09-21T05:51:16.096Z,57.10
2018-09-21T05:51:47.957Z,57.60
2018-09-21T05:52:19.936Z,57.00
2018-09-21T05:52:52.228Z,57.00
2018-09-21T05:53:24.196Z,57.10
2018-09-21T05:53:56.157Z,57.10
2018-09-21T05:54:28.037Z,57.00
2018-09-21T05:54:59.939Z,57.10
2018-09-21T05:55:31.737Z,57.10
2018-09-21T05:56:03.910Z,57.00
2018-09-21T05:56:35.762Z,57.10
2018-09-21T05:57:07.620Z,57.50
2018-09-21T05:57:39.552Z,57.00
2018-09-21T05:58:11.379Z,57.00
2018-09-21T05:58:43.222Z,57.00
2018-09-21T05:59:15.018Z,57.00
2018-09-21T05:59:47.020Z,57.10
2018-09-21T06:00:19.078Z,57.10
2018-09-21T06:00:50.853Z,57.10
2018-09-21T06:01:22.692Z,57.00
2018-09-21T06:01:54.520Z,57.00
2018-09-21T06:02:26.392Z,57.00
2018-09-21T06:02:58.402Z,56.90
2018-09-21T06:03:30.542Z,57.70
2018-09-21T06:04:02.380Z,57.00
2018-09-21T06:04:34.313Z,57.00
2018-09-21T06:05:06.113Z,57.00
2018-09-21T06:05:37.934Z,56.90
2018-09-21T06:06:09.820Z,56.90
2018-09-21T06:06:41.913Z,57.00
2018-09-21T06:07:13.776Z,57.00
2018-09-21T06:07:45.668Z,56.90
2018-09-21T06:08:17.650Z,57.40
2018-09-21T06:08:49.600Z,56.90
2018-09-21T06:09:21.570Z,56.90
2018-09-21T06:09:53.580Z,56.80
2018-09-21T06:10:25.361Z,56.80
2018-09-21T06:10:57.266Z,56.80
2018-09-21T06:11:29.230Z,56.90
2018-09-21T06:12:01.094Z,56.90
2018-09-21T06:12:33.084Z,56.90
2018-09-21T06:13:04.850Z,56.90
2018-09-21T06:13:36.677Z,56.90
2018-09-21T06:14:08.753Z,56.90
2018-09-21T06:14:40.701Z,56.90
2018-09-21T06:15:12.493Z,57.40
2018-09-21T06:15:44.333Z,56.80
2018-09-21T06:16:16.322Z,56.80
2018-09-21T06:16:48.270Z,56.80
2018-09-21T06:17:20.365Z,56.90
2018-09-21T06:17:52.194Z,56.80
2018-09-21T06:18:24.058Z,56.80
2018-09-21T06:18:55.871Z,56.90
2018-09-21T06:19:27.834Z,56.90
2018-09-21T06:20:11.868Z,56.80
2018-09-21T06:20:31.895Z,56.90
2018-09-21T06:21:03.777Z,56.90
2018-09-21T06:21:35.792Z,56.50
2018-09-21T06:22:07.632Z,56.90
2018-09-21T06:22:45.102Z,56.80
2018-09-21T06:23:11.693Z,56.90
2018-09-21T06:23:43.802Z,56.80
2018-09-21T06:24:15.677Z,56.80
2018-09-21T06:24:47.644Z,56.80
2018-09-21T06:25:19.602Z,56.80
2018-09-21T06:25:51.503Z,56.80
2018-09-21T06:26:23.442Z,57.50
2018-09-21T06:26:55.394Z,56.90
2018-09-21T06:27:27.313Z,56.80
2018-09-21T06:27:59.222Z,56.70
2018-09-21T06:28:31.293Z,56.90
2018-09-21T06:29:03.174Z,56.90
2018-09-21T06:29:35.055Z,56.80
2018-09-21T06:30:06.951Z,56.80
2018-09-21T06:30:38.764Z,56.80
2018-09-21T06:31:10.557Z,56.80
2018-09-21T06:31:42.374Z,56.80
2018-09-21T06:32:14.184Z,56.70
2018-09-21T06:32:46.266Z,56.70
2018-09-21T06:33:18.080Z,56.70
2018-09-21T06:33:49.928Z,56.70
2018-09-21T06:34:21.744Z,56.70
2018-09-21T06:34:53.624Z,56.50
2018-09-21T06:35:25.403Z,56.60
2018-09-21T06:35:57.198Z,56.60
2018-09-21T06:36:29.052Z,56.50
2018-09-21T06:37:01.090Z,56.70
2018-09-21T06:37:32.895Z,56.60
2018-09-21T06:38:04.683Z,56.60
2018-09-21T06:38:36.518Z,56.60
2018-09-21T06:39:08.291Z,56.50
2018-09-21T06:39:40.178Z,56.70
2018-09-21T06:40:12.116Z,56.60
2018-09-21T06:40:43.945Z,56.70
2018-09-21T06:41:15.810Z,56.60
2018-09-21T06:41:47.638Z,56.60
2018-09-21T06:42:19.441Z,56.50
2018-09-21T06:42:51.236Z,56.50
2018-09-21T06:43:23.315Z,56.60
2018-09-21T06:43:55.246Z,56.50
2018-09-21T06:44:27.106Z,56.60
2018-09-21T06:44:59.213Z,56.60
2018-09-21T06:45:31.052Z,56.60
2018-09-21T06:46:03.076Z,56.60
2018-09-21T06:46:35.117Z,56.50
2018-09-21T06:47:06.976Z,56.50
2018-09-21T06:47:38.797Z,56.50
2018-09-21T06:48:10.612Z,56.60
2018-09-21T06:48:42.727Z,56.60
2018-09-21T06:49:14.511Z,56.50
2018-09-21T06:49:46.338Z,56.50
2018-09-21T06:50:18.387Z,56.60
2018-09-21T06:50:50.277Z,56.60
2018-09-21T06:51:22.116Z,56.50
2018-09-21T06:51:53.977Z,56.50
2018-09-21T06:52:25.828Z,56.50
2018-09-21T06:52:57.687Z,56.50
2018-09-21T06:53:29.743Z,56.50
2018-09-21T06:54:01.526Z,56.60
2018-09-21T06:54:33.449Z,56.70
2018-09-21T06:55:05.282Z,56.60
2018-09-21T06:55:37.151Z,56.60